Upper Denton, United Kingdom

4:39 PM BST on April 27, 2017 (GMT +0100)
South Tynedale | | Change Station

Elev 610 ft 54.92 °N, 2.51 °W | Updated 13 seconds ago

Mostly Cloudy
Mostly Cloudy
46.0 °F
Feels Like 42 °F
N
7.6
Wind Variable Wind from WSW
Gusts 9.8 mph

Today
High -- | Low -- °F
--% Chance of Precip.
Yesterday
High -- | Low -- °F
Precip. -- in
Pressure 29.95 in
Visibility 6.2 miles
Clouds Few 3000 ft
Scattered Clouds 3500 ft
Windchill 42 °F
Dew Point 46 °F
Humidity 99%
Rainfall 0.02 in
Snow Depth Not available.
5:38 AM 8:38 PM
New Moon, 2% visible
METAR EGNC 271520Z 28011KT 9999 FEW030 SCT035 12/05 Q1014
Pressure 29.95 in
Visibility 6.2 miles
Clouds Few 3000 ft
Scattered Clouds 3500 ft
Windchill 42 °F
Dew Point 46 °F
Humidity 99%
Rainfall 0.02 in
Snow Depth Not available.
5:38 AM 8:38 PM
New Moon, 2% visible
METAR EGNC 271520Z 28011KT 9999 FEW030 SCT035 12/05 Q1014

Get Severe Weather Alerts

Thanks for signing up!

Be on the lookout for a verification email in your inbox.

You'll start receiving the daily forecast at 8 AM.

×

10-Day Weather Forecast

×

Almanac

Astronomy

Apr. 27, 2017 Rise Set
Actual Time
Civil Twilight
Nautical Twilight
Astronomical Twilight
Moon
Length of Visible Light
Length of Day
Tomorrow will be .
, % of the Moon is Illuminated

Today's Extremes

Country Highs Country Lows

Community

WunderPhotos

WunderBlog® & News

Nearby

Air Quality

  Air Quality AQ Index Pollutant
Not available.

Snow Depth

Station Depth Elevation

Earthquake Activity

City Distance Mag. Time & Date
Minimum magnitude displayed is 2.5.

Coastal Water Temperatures

Place Temperature

Stations

Nearby Weather Stations

Station Location Temp. Windchill Dew Point Humidity Wind Precip. Elev Updated Type